Record high temperature 44.9°C Record low temperature -0.3°C Record high gust 85.1 km/h Record high average 77.7 km/h Record daily rain 109.1 mm Record low windchill -4.5°C Record high barometer 1043.6 hPa Record low barometer 978.0 hPa
Daily high pressure 1006.1 mb Daily low pressure 1004.3 mb Daily low windchill 15.3°C Daily high heat index 25.6°C Daily high gust speed 18.5 kmh SSW Daily high average speed 10.0 kmh SW
Estación de MeteoMurcia.com -------- Murcia-Puente Tocinos
Ultima grabación a: 13:50 Data: 26 April 2017, time of next update: 14:00
Tiempo actualmostly clear Temperatura actual25.3°C (77.5°F) (Indice de Calor25.3°C ), Temperatura aparente 24.9°C
Temperatura máxima (desde medianoche)25.6°C at: 13:37 Temperatura mínima (desde medianoche)15.3°C at: 06:20
Velocidad media del viento (diez minutos)4.4 kmh (2.4 kts) Dirección del viento (diez minutos)WSW (250°)
Indice de Calor25.3°C ráfagas maxima (última hora)11.8 kmh (6.4 kts) at: 12:51
ráfagas maxima (desde medianoche)18.5 kmh (10.0 kts) at: 00:00 Maximo media de un minuto (desde medianoche)10.0 kmh (5.4 kts) at: 00:06
Lluvia (última hora)0.0 mm Lluvia (desde medianoche)0.0 mm (0.00 in.)---
Lluvia Este mes 0.0 mm (0.00 in.) Lluvia Hasta la fecha este año118.7 mm (4.67 in.)
Lluvia máxima por minuto (última hora)0.0 mm/min Lluvia maxima por hora (últimas 6 horas)0.0 mm/hora
Lluvia de ayer 0.0 mm Punto de rocío 9.2°C (Wet Bulb :16.4°C )
Humedad 36 %, Humidex 26.2°C Barómetro corregido a msl1004.7 mb
cambio de presión-0.5 mb (última hora) Tendencia (últimas 1 hora)ESTACIONARIO
cambio de presión (últimas 12 horas)-0.9 mb cambio de presión (últimas 6 horas)-0.1 mb
Current Temp. Interna 27.4°C
Current Hum. Interna 41%


Última imagen cámara web


Weather report/warning/Metars

Alicante / El Altet, Spain (LEAL) 38-17N 000-33W 31M
Apr 26, 2017 - 07:30 AM EDT / 2017.04.26 1130 UTC
Wind: from the S (190 degrees) at 8 MPH (7 KT) (direction variable):0
Visibility: greater than 7 mile(s):0
Sky conditions: mostly clear
Temperature: 77 F (25 C)
Dew Point: 51 F (11 C)
Relative Humidity: 41%
Pressure (altimeter): 29.71 in. Hg (1006 hPa)
ob: LEAL 261130Z 19007KT 130V250 9999 FEW060 25/11 Q1006 NOSIG
cycle: 11
Murcia / San Javier, Spain (LELC) 37-47N 000-48W 3M
Apr 26, 2017 - 07:00 AM EDT / 2017.04.26 1100 UTC
Wind: from the SE (140 degrees) at 8 MPH (7 KT) (direction variable):0
Visibility: greater than 7 mile(s):0
Temperature: 77 F (25 C)
Dew Point: 62 F (17 C)
Relative Humidity: 61%
Pressure (altimeter): 29.74 in. Hg (1007 hPa)
ob: LELC 261100Z 14007KT 090V190 CAVOK 25/17 Q1007 NOSIG
cycle: 11
Murcia / Alcantarilla, Spain (LERI) 37-57N 001-14W 75M
Apr 26, 2017 - 07:00 AM EDT / 2017.04.26 1100 UTC
Wind: from the SSW (210 degrees) at 5 MPH (4 KT) (direction variable):0
Visibility: greater than 7 mile(s):0
Sky conditions: mostly clear
Temperature: 77 F (25 C)
Dew Point: 46 F (8 C)
Relative Humidity: 33%
Pressure (altimeter): 29.74 in. Hg (1007 hPa)
ob: LERI 261100Z 21004KT 120V290 9999 FEW040 25/08 Q1007 NOSIG
cycle: 11
Gerona / Costa Brava, Spain (LEGE) 41-54N 002-46E 129M
Apr 26, 2017 - 07:30 AM EDT / 2017.04.26 1130 UTC
Wind: from the NE (050 degrees) at 9 MPH (8 KT) (direction variable):0
Visibility: 1 mile(s):0
Sky conditions: mostly cloudy
Weather: light rain
Temperature: 53 F (12 C)
Dew Point: 50 F (10 C)
Relative Humidity: 87%
Pressure (altimeter): 29.80 in. Hg (1009 hPa)
ob: LEGE 261130Z 05008KT 010V080 3000 -RA BKN012 12/10 Q1009
cycle: 11
Madri-Colmenar, Spain (LECV) 40-39N 003-44W
Apr 26, 2017 - 07:00 AM EDT / 2017.04.26 1100 UTC
Wind: from the SSE (150 degrees) at 7 MPH (6 KT):0
Visibility: greater than 7 mile(s):0
Sky conditions: mostly cloudy
Temperature: 59 F (15 C)
Dew Point: 41 F (5 C)
Relative Humidity: 51%
Pressure (altimeter): 29.77 in. Hg (1008 hPa)
ob: LECV 261100Z 15006KT 9999 BKN035 15/05 Q1008
cycle: 11
Asturias / Aviles, Spain (LEAS) 43-33N 006-02W 130M
Apr 26, 2017 - 07:30 AM EDT / 2017.04.26 1130 UTC
Wind: from the SE (140 degrees) at 7 MPH (6 KT) (direction variable):0
Visibility: greater than 7 mile(s):0
Sky conditions: partly cloudy
Weather: Towering cumulus clouds observed
Temperature: 44 F (7 C)
Dew Point: 41 F (5 C)
Relative Humidity: 87%
Pressure (altimeter): 30.06 in. Hg (1018 hPa)
ob: LEAS 261130Z 14006KT 100V180 9999 SCT022TCU SCT044 07/05 Q1018 TEMPO 3000 RA
cycle: 11
Almeria / Aeropuerto, Spain (LEAM) 36-51N 002-23W 21M
Apr 26, 2017 - 07:30 AM EDT / 2017.04.26 1130 UTC
Wind: from the SW (220 degrees) at 16 MPH (14 KT):0
Visibility: 5 mile(s):0
Temperature: 68 F (20 C)
Dew Point: 60 F (16 C)
Relative Humidity: 77%
Pressure (altimeter): 29.77 in. Hg (1008 hPa)
ob: LEAM 261130Z 22014KT 9000 NSC 20/16 Q1008
cycle: 11
Pamplona / Noain, Spain (LEPP) 42-46N 001-38W 453M
Apr 26, 2017 - 07:30 AM EDT / 2017.04.26 1130 UTC
Wind: from the NNW (340 degrees) at 10 MPH (9 KT) (direction variable):0
Visibility: greater than 7 mile(s):0
Sky conditions: mostly clear
Temperature: 48 F (9 C)
Dew Point: 33 F (1 C)
Relative Humidity: 57%
Pressure (altimeter): 29.91 in. Hg (1013 hPa)
ob: LEPP 261130Z 34009KT 300V020 9999 FEW035 09/01 Q1013
cycle: 11
Badajoz / Talavera La Real, Spain (LEBZ) 38-53N 006-49W 192M
Apr 26, 2017 - 07:00 AM EDT / 2017.04.26 1100 UTC
Wind: from the W (280 degrees) at 7 MPH (6 KT) (direction variable):0
Visibility: greater than 7 mile(s):0
Sky conditions: partly cloudy
Temperature: 62 F (17 C)
Dew Point: 48 F (9 C)
Relative Humidity: 59%
Pressure (altimeter): 29.83 in. Hg (1010 hPa)
ob: LEBZ 261100Z 28006KT 240V330 9999 SCT030 17/09 Q1010
cycle: 11
Albacete / Los Llanos, Spain (LEAB) 38-57N 001-51W 704M
Apr 26, 2017 - 07:00 AM EDT / 2017.04.26 1100 UTC
Wind: from the W (260 degrees) at 13 MPH (11 KT) (direction variable):0
Visibility: greater than 7 mile(s):0
Sky conditions: mostly clear
Temperature: 62 F (17 C)
Dew Point: 42 F (6 C)
Relative Humidity: 48%
Pressure (altimeter): 29.80 in. Hg (1009 hPa)
ob: LEAB 261100Z 26011KT 230V290 9999 FEW044 17/06 Q1009 NOSIG
cycle: 11



La informacion se graba a intervalos de 2 minutos, pero hay info grabada cada minuto. Optimizado para 800*600 y Color verdadero. Use el boton de

Use the RECARGA en su navegador para recojer la ulima info.

Clicar aquí para regarga diaria de medias/extremas del mes














Created by "Weather Display" software version 10.37S at this start time/date 11:40:57 22/04/2017

La estación de MeteoMurcia.com, publica sus datos en los siguientes proyectos:

Meteoclimatic www.awekas.at

W3Counter
Web Analytics